Time;durP1;ratioP1;P1;durP2;ratioP2;P2;SDS_P1;SDS_P2;PMS_P1;PMS_P2;Temp;Humidity;BMP_temperature;BMP_pressure;BME280_temperature;BME280_humidity;BME280_pressure;Samples;Min_cycle;Max_cycle;Signal;HPM_P1;HPM_P2
2021/06/30 00:01:46;;;;;;;;;;;19.10;91.00;;;;;;4317227;33;25790;-75
2021/06/30 00:04:13;;;;;;;;;;;19.10;91.10;;;;;;4317665;33;41321;-76
2021/06/30 00:06:45;;;;;;;;;;;19.00;91.10;;;;;;4319599;33;43673;-75
2021/06/30 00:09:18;;;;;;;;;;;19.00;91.20;;;;;;4320179;33;45114;-77
2021/06/30 00:11:50;;;;;;;;;;;19.00;91.20;;;;;;4308930;33;43237;-75
2021/06/30 00:14:22;;;;;;;;;;;19.00;91.20;;;;;;4333800;33;44527;-75
2021/06/30 00:16:55;;;;;;;;;;;19.00;91.30;;;;;;4333829;33;44758;-75
2021/06/30 00:19:28;;;;;;;;;;;18.90;91.30;;;;;;4334097;33;27731;-77
2021/06/30 00:22:00;;;;;;;;;;;18.90;91.40;;;;;;4322232;33;20020;-77
2021/06/30 00:24:27;;;;;;;;;;;18.90;91.40;;;;;;4321214;33;20013;-77
2021/06/30 00:26:59;;;;;;;;;;;18.90;91.40;;;;;;4320777;33;44001;-76
2021/06/30 00:29:31;;;;;;;;;;;18.90;91.50;;;;;;4333645;33;41151;-76
2021/06/30 00:32:00;;;;;;;;;;;18.90;91.50;;;;;;4333483;33;41090;-77
2021/06/30 00:34:35;;;;;;;;;;;18.90;91.50;;;;;;4333227;33;43745;-75
2021/06/30 00:37:10;;;;;;;;;;;18.80;91.60;;;;;;4321655;33;20016;-75
2021/06/30 00:39:40;;;;;;;;;;;18.90;91.60;;;;;;4320495;33;20001;-75
2021/06/30 00:42:12;;;;;;;;;;;18.90;91.60;;;;;;4321168;33;20052;-75
2021/06/30 00:44:47;;;;;;;;;;;18.90;91.50;;;;;;4334154;33;20064;-75
2021/06/30 00:47:14;;;;;;;;;;;18.90;91.50;;;;;;4333511;33;23979;-76
2021/06/30 00:49:46;;;;;;;;;;;19.00;91.50;;;;;;4320173;33;25396;-75
2021/06/30 00:52:18;;;;;;;;;;;19.00;91.50;;;;;;4321635;33;20010;-75
2021/06/30 00:54:52;;;;;;;;;;;19.00;91.40;;;;;;4333265;33;26050;-75
2021/06/30 00:57:25;;;;;;;;;;;19.00;91.40;;;;;;4321102;33;25719;-75
2021/06/30 00:59:58;;;;;;;;;;;19.00;91.40;;;;;;4334168;33;20002;-75
2021/06/30 01:02:30;;;;;;;;;;;19.00;91.40;;;;;;4333451;33;20540;-75
2021/06/30 01:05:02;;;;;;;;;;;19.00;91.40;;;;;;4333987;33;20013;-75
2021/06/30 01:07:34;;;;;;;;;;;19.10;91.40;;;;;;4308744;33;20002;-75
2021/06/30 01:10:06;;;;;;;;;;;19.10;91.30;;;;;;4333835;33;20610;-75
2021/06/30 01:12:34;;;;;;;;;;;19.00;91.30;;;;;;4320232;33;23206;-75
2021/06/30 01:15:05;;;;;;;;;;;19.00;91.20;;;;;;4333515;33;20011;-75
2021/06/30 01:17:37;;;;;;;;;;;19.00;91.30;;;;;;4320239;33;23858;-75
2021/06/30 01:20:09;;;;;;;;;;;19.00;91.30;;;;;;4320680;33;20069;-74
2021/06/30 01:22:42;;;;;;;;;;;19.00;91.30;;;;;;4333473;33;24478;-75
2021/06/30 01:25:14;;;;;;;;;;;19.00;91.30;;;;;;4321049;33;20024;-75
2021/06/30 01:27:46;;;;;;;;;;;19.00;91.30;;;;;;4333142;33;30627;-75
2021/06/30 01:30:18;;;;;;;;;;;19.00;91.30;;;;;;4320019;33;20386;-75
2021/06/30 01:32:51;;;;;;;;;;;19.00;91.30;;;;;;4333776;33;20463;-75
2021/06/30 01:35:22;;;;;;;;;;;19.00;91.40;;;;;;4333628;33;20390;-75
2021/06/30 01:37:54;;;;;;;;;;;19.00;91.40;;;;;;4307786;33;43800;-75
2021/06/30 01:40:27;;;;;;;;;;;19.00;91.40;;;;;;4332405;33;42430;-75
2021/06/30 01:42:59;;;;;;;;;;;19.00;91.40;;;;;;4319983;33;38443;-75
2021/06/30 01:45:31;;;;;;;;;;;19.00;91.40;;;;;;4332466;33;36387;-74
2021/06/30 01:48:06;;;;;;;;;;;18.90;91.30;;;;;;4318871;33;44574;-74
2021/06/30 01:50:38;;;;;;;;;;;18.90;91.30;;;;;;4332179;33;43652;-74
2021/06/30 01:53:11;;;;;;;;;;;18.90;91.40;;;;;;4319789;33;43247;-75
2021/06/30 01:55:38;;;;;;;;;;;18.90;91.40;;;;;;4332291;33;40369;-74
2021/06/30 01:58:11;;;;;;;;;;;18.90;91.40;;;;;;4319393;33;42815;-74
2021/06/30 02:00:43;;;;;;;;;;;18.90;91.40;;;;;;4332521;33;44299;-75
2021/06/30 02:03:15;;;;;;;;;;;18.90;91.40;;;;;;4318625;33;42616;-75
2021/06/30 02:05:47;;;;;;;;;;;18.90;91.40;;;;;;4318601;33;40424;-75
2021/06/30 02:08:19;;;;;;;;;;;18.90;91.40;;;;;;4332101;33;44433;-74
2021/06/30 02:10:53;;;;;;;;;;;18.90;91.40;;;;;;4319707;33;20010;-75
2021/06/30 02:13:20;;;;;;;;;;;18.90;91.40;;;;;;4318549;33;41492;-75
2021/06/30 02:15:52;;;;;;;;;;;18.80;91.40;;;;;;4333056;33;20020;-75
2021/06/30 02:18:20;;;;;;;;;;;18.80;91.40;;;;;;4331507;33;42255;-74
2021/06/30 02:20:52;;;;;;;;;;;18.80;91.40;;;;;;4318472;33;41957;-74
2021/06/30 02:23:19;;;;;;;;;;;18.80;91.40;;;;;;4331586;33;40643;-74
2021/06/30 02:25:51;;;;;;;;;;;18.80;91.40;;;;;;4319744;33;20415;-75
2021/06/30 02:28:21;;;;;;;;;;;18.80;91.40;;;;;;4331317;33;44962;-75
2021/06/30 02:30:53;;;;;;;;;;;18.80;91.40;;;;;;4332387;33;26394;-74
2021/06/30 02:33:26;;;;;;;;;;;18.70;91.40;;;;;;4318730;33;35138;-75
2021/06/30 02:35:53;;;;;;;;;;;18.70;91.50;;;;;;4332514;33;20009;-74
2021/06/30 02:38:23;;;;;;;;;;;18.70;91.50;;;;;;4331908;33;37363;-74
2021/06/30 02:40:56;;;;;;;;;;;18.60;91.50;;;;;;4306519;33;45178;-74
2021/06/30 02:43:23;;;;;;;;;;;18.60;91.50;;;;;;4305840;33;43084;-74
2021/06/30 02:45:50;;;;;;;;;;;18.70;91.50;;;;;;4319262;33;20110;-74
2021/06/30 02:48:25;;;;;;;;;;;18.60;91.50;;;;;;4306563;33;45927;-74
2021/06/30 02:50:52;;;;;;;;;;;18.60;91.50;;;;;;4332163;33;20390;-74
2021/06/30 02:53:24;;;;;;;;;;;18.60;91.50;;;;;;4318605;33;20017;-75
2021/06/30 02:55:57;;;;;;;;;;;18.60;91.50;;;;;;4332600;33;20016;-74
2021/06/30 02:58:29;;;;;;;;;;;18.60;91.50;;;;;;4332195;33;20047;-74
2021/06/30 03:00:56;;;;;;;;;;;18.60;91.50;;;;;;4332244;33;20005;-75
2021/06/30 03:03:28;;;;;;;;;;;18.60;91.50;;;;;;4319084;33;20465;-74
2021/06/30 03:06:03;;;;;;;;;;;18.60;91.50;;;;;;4319940;33;20069;-74
2021/06/30 03:08:35;;;;;;;;;;;18.60;91.50;;;;;;4319023;33;26979;-74
2021/06/30 03:11:03;;;;;;;;;;;18.60;91.50;;;;;;4332050;33;20013;-74
2021/06/30 03:13:35;;;;;;;;;;;18.60;91.40;;;;;;4319745;33;20013;-75
2021/06/30 03:16:07;;;;;;;;;;;18.50;91.40;;;;;;4332507;33;20006;-75
2021/06/30 03:18:39;;;;;;;;;;;18.50;91.40;;;;;;4307663;33;20040;-74
2021/06/30 03:21:11;;;;;;;;;;;18.50;91.50;;;;;;4307529;33;20002;-74
2021/06/30 03:23:38;;;;;;;;;;;18.50;91.40;;;;;;4331569;33;20444;-75
2021/06/30 03:26:10;;;;;;;;;;;18.40;91.40;;;;;;4307213;33;20070;-74
2021/06/30 03:28:40;;;;;;;;;;;18.40;91.50;;;;;;4331831;33;20040;-74
2021/06/30 03:31:12;;;;;;;;;;;18.40;91.80;;;;;;4331406;33;24479;-74
2021/06/30 03:33:40;;;;;;;;;;;18.40;91.50;;;;;;4306437;33;20407;-75
2021/06/30 03:36:12;;;;;;;;;;;18.40;91.50;;;;;;4331430;33;29352;-74
2021/06/30 03:38:39;;;;;;;;;;;18.40;91.80;;;;;;4332399;33;20019;-74
2021/06/30 03:41:11;;;;;;;;;;;18.30;91.40;;;;;;4331275;33;25304;-75
2021/06/30 03:43:38;;;;;;;;;;;18.30;91.50;;;;;;4317905;33;24597;-74
2021/06/30 03:46:07;;;;;;;;;;;18.30;91.50;;;;;;4331754;33;20001;-74
2021/06/30 03:48:39;;;;;;;;;;;18.30;91.50;;;;;;4306081;33;43905;-74
2021/06/30 03:51:11;;;;;;;;;;;18.30;91.50;;;;;;4331171;33;44727;-74
2021/06/30 03:53:43;;;;;;;;;;;18.30;91.40;;;;;;4330555;33;43025;-75
2021/06/30 03:56:15;;;;;;;;;;;18.30;91.40;;;;;;4330800;33;44690;-74
2021/06/30 03:58:42;;;;;;;;;;;18.20;91.40;;;;;;4317620;33;26046;-74
2021/06/30 04:01:09;;;;;;;;;;;18.20;91.40;;;;;;4304789;33;43812;-74
2021/06/30 04:03:36;;;;;;;;;;;18.20;91.30;;;;;;4330837;33;44446;-75
2021/06/30 04:06:08;;;;;;;;;;;18.30;91.30;;;;;;4330997;33;44501;-75
2021/06/30 04:08:40;;;;;;;;;;;18.20;91.30;;;;;;4318134;33;45294;-75
2021/06/30 04:11:12;;;;;;;;;;;18.20;91.30;;;;;;4330942;33;37461;-74
2021/06/30 04:13:44;;;;;;;;;;;18.20;91.30;;;;;;4330338;33;43648;-75
2021/06/30 04:16:16;;;;;;;;;;;18.20;91.30;;;;;;4305683;33;44962;-74
2021/06/30 04:18:43;;;;;;;;;;;18.20;91.30;;;;;;4330600;33;44435;-74
2021/06/30 04:21:16;;;;;;;;;;;18.20;91.30;;;;;;4317931;33;43669;-74
2021/06/30 04:23:53;;;;;;;;;;;18.20;91.30;;;;;;4318071;33;44878;-74
2021/06/30 04:26:25;;;;;;;;;;;18.20;91.30;;;;;;4305807;33;32067;-74
2021/06/30 04:28:57;;;;;;;;;;;18.10;91.30;;;;;;4331775;33;20038;-74
2021/06/30 04:31:26;;;;;;;;;;;18.10;91.30;;;;;;4340595;33;20041;-74
2021/06/30 04:33:59;;;;;;;;;;;18.10;91.30;;;;;;4346566;33;20030;-74
2021/06/30 04:36:26;;;;;;;;;;;18.10;91.20;;;;;;4320753;33;20016;-75
2021/06/30 04:39:02;;;;;;;;;;;18.10;91.30;;;;;;4346468;33;20340;-74
2021/06/30 04:41:36;;;;;;;;;;;18.10;91.30;;;;;;4346333;33;20005;-74
2021/06/30 04:44:14;;;;;;;;;;;18.00;91.30;;;;;;4320667;33;21465;-75
2021/06/30 04:46:41;;;;;;;;;;;18.00;91.30;;;;;;4333077;33;20492;-75
2021/06/30 04:49:11;;;;;;;;;;;18.00;91.30;;;;;;4346112;33;20020;-74
2021/06/30 04:51:45;;;;;;;;;;;18.00;91.30;;;;;;4333315;33;20072;-75
2021/06/30 04:54:23;;;;;;;;;;;18.00;91.30;;;;;;4334514;33;20012;-77
2021/06/30 04:57:00;;;;;;;;;;;18.00;91.70;;;;;;4348915;33;20009;-74
2021/06/30 04:59:32;;;;;;;;;;;18.00;91.30;;;;;;4335955;33;20099;-75
2021/06/30 05:02:04;;;;;;;;;;;18.00;91.30;;;;;;4348544;33;20079;-75
2021/06/30 05:04:36;;;;;;;;;;;18.00;91.20;;;;;;4348776;33;20385;-75
2021/06/30 05:07:04;;;;;;;;;;;18.00;91.20;;;;;;4335373;33;20006;-75
2021/06/30 05:09:35;;;;;;;;;;;18.00;91.20;;;;;;4348828;33;20202;-75
2021/06/30 05:12:07;;;;;;;;;;;18.00;91.30;;;;;;4348292;33;24133;-75
2021/06/30 05:14:35;;;;;;;;;;;18.00;91.20;;;;;;4348609;33;20009;-75
2021/06/30 05:17:07;;;;;;;;;;;18.00;91.20;;;;;;4347360;33;43900;-75
2021/06/30 05:19:38;;;;;;;;;;;17.90;91.20;;;;;;4347953;33;44522;-74
2021/06/30 05:22:10;;;;;;;;;;;18.00;91.20;;;;;;4347530;33;36695;-75
2021/06/30 05:24:38;;;;;;;;;;;18.00;91.20;;;;;;4346908;33;43635;-75
2021/06/30 05:27:05;;;;;;;;;;;17.90;91.20;;;;;;4347430;33;43508;-75
2021/06/30 05:29:35;;;;;;;;;;;17.90;91.20;;;;;;4321703;33;39765;-75
2021/06/30 05:32:04;;;;;;;;;;;17.90;91.20;;;;;;4347546;33;24810;-74
2021/06/30 05:34:34;;;;;;;;;;;17.90;91.30;;;;;;4333987;33;45000;-74
2021/06/30 05:37:01;;;;;;;;;;;17.90;91.20;;;;;;4347265;33;43520;-76
2021/06/30 05:39:34;;;;;;;;;;;17.90;91.20;;;;;;4334689;33;40518;-75
2021/06/30 05:42:08;;;;;;;;;;;17.90;91.30;;;;;;4334628;33;44942;-75
2021/06/30 05:44:42;;;;;;;;;;;17.90;91.30;;;;;;4347166;33;44376;-74
2021/06/30 05:47:09;;;;;;;;;;;17.80;91.20;;;;;;4333887;33;45047;-74
2021/06/30 05:49:41;;;;;;;;;;;17.80;91.30;;;;;;4334389;33;44694;-75
2021/06/30 05:52:13;;;;;;;;;;;17.80;91.30;;;;;;4347472;33;39226;-75
2021/06/30 05:54:40;;;;;;;;;;;17.80;91.30;;;;;;4346827;33;37911;-75
2021/06/30 05:57:08;;;;;;;;;;;17.80;91.30;;;;;;4347420;33;33217;-75
2021/06/30 05:59:40;;;;;;;;;;;17.80;91.30;;;;;;4334504;33;44560;-74
2021/06/30 06:02:07;;;;;;;;;;;17.80;91.30;;;;;;4333233;33;44460;-74
2021/06/30 06:04:39;;;;;;;;;;;17.80;91.30;;;;;;4346897;33;27913;-75
2021/06/30 06:07:11;;;;;;;;;;;17.80;91.30;;;;;;4321843;33;43912;-75
2021/06/30 06:09:43;;;;;;;;;;;17.80;91.30;;;;;;4346415;33;42620;-74
2021/06/30 06:12:18;;;;;;;;;;;17.80;91.40;;;;;;4346904;33;43201;-74
2021/06/30 06:14:56;;;;;;;;;;;17.70;91.30;;;;;;4347086;33;34893;-74
2021/06/30 06:17:23;;;;;;;;;;;17.70;91.30;;;;;;4346972;33;44826;-74
2021/06/30 06:19:50;;;;;;;;;;;17.70;91.30;;;;;;4346459;33;42925;-76
2021/06/30 06:22:25;;;;;;;;;;;17.70;91.30;;;;;;4334479;33;37046;-74
2021/06/30 06:24:55;;;;;;;;;;;17.70;91.30;;;;;;4347099;33;24938;-74
2021/06/30 06:27:32;;;;;;;;;;;17.70;91.30;;;;;;4346606;33;44664;-74
2021/06/30 06:30:08;;;;;;;;;;;17.70;91.20;;;;;;4333873;33;43542;-74
2021/06/30 06:32:38;;;;;;;;;;;17.70;91.20;;;;;;4333883;33;43428;-74
2021/06/30 06:35:10;;;;;;;;;;;17.70;91.20;;;;;;4347663;33;20017;-74
2021/06/30 06:37:51;;;;;;;;;;;17.70;91.30;;;;;;4321697;33;28579;-74
2021/06/30 06:40:24;;;;;;;;;;;17.70;91.30;;;;;;4322614;33;20000;-74
2021/06/30 06:42:56;;;;;;;;;;;17.60;91.30;;;;;;4347400;33;20457;-74
2021/06/30 06:45:31;;;;;;;;;;;17.60;91.30;;;;;;4347472;33;20013;-75
2021/06/30 06:48:06;;;;;;;;;;;17.60;91.30;;;;;;4347144;33;20051;-75
2021/06/30 06:50:38;;;;;;;;;;;17.60;91.30;;;;;;4334568;33;20010;-74
2021/06/30 06:53:09;;;;;;;;;;;17.60;91.30;;;;;;4334568;33;20017;-74
2021/06/30 06:55:36;;;;;;;;;;;17.50;91.30;;;;;;4347343;33;20013;-74
2021/06/30 06:58:08;;;;;;;;;;;17.60;91.30;;;;;;4321573;33;20024;-75
2021/06/30 07:00:40;;;;;;;;;;;17.60;91.30;;;;;;4321631;33;20006;-75
2021/06/30 07:03:12;;;;;;;;;;;17.50;91.30;;;;;;4333692;33;25563;-75
2021/06/30 07:05:47;;;;;;;;;;;17.50;91.30;;;;;;4334849;33;20068;-75
2021/06/30 07:08:15;;;;;;;;;;;17.50;91.30;;;;;;4333451;33;20055;-74
2021/06/30 07:10:47;;;;;;;;;;;17.50;91.30;;;;;;4334142;33;22904;-75
2021/06/30 07:13:14;;;;;;;;;;;17.50;91.30;;;;;;4333268;33;20005;-75
2021/06/30 07:15:44;;;;;;;;;;;17.50;91.30;;;;;;4345824;33;20256;-75
2021/06/30 07:18:16;;;;;;;;;;;17.50;91.30;;;;;;4346997;33;20378;-74
2021/06/30 07:20:52;;;;;;;;;;;17.50;91.30;;;;;;4346691;33;21527;-74
2021/06/30 07:23:24;;;;;;;;;;;17.50;91.30;;;;;;4346008;33;44540;-74
2021/06/30 07:25:57;;;;;;;;;;;17.40;91.30;;;;;;4345786;33;43679;-75
2021/06/30 07:28:25;;;;;;;;;;;17.40;91.30;;;;;;4319817;33;44337;-74
2021/06/30 07:30:57;;;;;;;;;;;17.40;91.30;;;;;;4346291;33;27793;-74
2021/06/30 07:33:29;;;;;;;;;;;17.40;91.30;;;;;;4345713;33;44204;-74
2021/06/30 07:36:01;;;;;;;;;;;17.40;91.30;;;;;;4333080;33;44729;-74
2021/06/30 07:38:28;;;;;;;;;;;17.50;91.30;;;;;;4332680;33;34528;-74
2021/06/30 07:41:00;;;;;;;;;;;17.40;91.20;;;;;;4320421;33;45897;-74
2021/06/30 07:43:32;;;;;;;;;;;17.40;91.30;;;;;;4320701;33;43939;-77
2021/06/30 07:46:00;;;;;;;;;;;17.40;91.30;;;;;;4331876;33;45018;-75
2021/06/30 07:48:27;;;;;;;;;;;17.40;91.30;;;;;;4319866;33;45210;-74
2021/06/30 07:50:54;;;;;;;;;;;17.40;91.20;;;;;;4346816;33;20012;-75
2021/06/30 07:53:22;;;;;;;;;;;17.40;91.20;;;;;;4345869;33;31936;-74
2021/06/30 07:55:49;;;;;;;;;;;17.40;91.20;;;;;;4345641;33;44493;-74
2021/06/30 07:58:20;;;;;;;;;;;17.40;91.20;;;;;;4332434;33;44108;-75
2021/06/30 08:00:48;;;;;;;;;;;17.40;91.30;;;;;;4331778;33;43693;-74
2021/06/30 08:03:15;;;;;;;;;;;17.30;91.20;;;;;;4345253;33;44073;-75
2021/06/30 08:05:42;;;;;;;;;;;17.30;91.20;;;;;;4319330;33;46158;-74
2021/06/30 08:08:10;;;;;;;;;;;17.30;91.20;;;;;;4346710;33;20021;-74
2021/06/30 08:10:37;;;;;;;;;;;17.30;91.20;;;;;;4344980;33;40912;-74
2021/06/30 08:13:04;;;;;;;;;;;17.30;91.30;;;;;;4345489;33;44558;-75
2021/06/30 08:15:31;;;;;;;;;;;17.30;91.20;;;;;;4332897;33;20405;-74
2021/06/30 08:17:58;;;;;;;;;;;17.30;91.20;;;;;;4319880;33;40246;-75
2021/06/30 08:20:25;;;;;;;;;;;17.30;91.20;;;;;;4344939;33;40351;-75
2021/06/30 08:22:53;;;;;;;;;;;17.30;91.20;;;;;;4320024;33;25910;-75
2021/06/30 08:25:23;;;;;;;;;;;17.30;91.30;;;;;;4331747;33;43177;-74
2021/06/30 08:27:51;;;;;;;;;;;17.30;91.30;;;;;;4346619;33;43722;-74
2021/06/30 08:30:19;;;;;;;;;;;17.30;91.30;;;;;;4322194;33;43377;-75
2021/06/30 08:32:47;;;;;;;;;;;17.30;91.20;;;;;;4348270;33;41151;-75
2021/06/30 08:35:14;;;;;;;;;;;17.30;91.20;;;;;;4322197;33;44437;-74
2021/06/30 08:37:45;;;;;;;;;;;17.30;91.30;;;;;;4349415;33;20076;-75
2021/06/30 08:40:17;;;;;;;;;;;17.20;91.20;;;;;;4347853;33;45076;-74
2021/06/30 08:42:45;;;;;;;;;;;17.20;91.30;;;;;;4335892;33;20017;-74
2021/06/30 08:45:12;;;;;;;;;;;17.20;91.30;;;;;;4334913;33;36447;-74
2021/06/30 08:47:40;;;;;;;;;;;17.30;91.30;;;;;;4347941;33;44421;-74
2021/06/30 08:50:09;;;;;;;;;;;17.30;91.30;;;;;;4334217;33;44561;-74
2021/06/30 08:52:37;;;;;;;;;;;17.30;91.30;;;;;;4334350;33;44781;-74
2021/06/30 08:55:05;;;;;;;;;;;17.30;91.20;;;;;;4335512;33;19997;-75
2021/06/30 08:57:33;;;;;;;;;;;17.30;91.20;;;;;;4334315;33;44540;-75
2021/06/30 09:00:00;;;;;;;;;;;17.30;91.20;;;;;;4335613;33;20083;-75
2021/06/30 09:02:27;;;;;;;;;;;17.30;91.20;;;;;;4333910;33;42445;-74
2021/06/30 09:05:34;;;;;;;;;;;17.20;91.20;;;;;;4334264;33;42818;-74
2021/06/30 09:08:00;;;;;;;;;;;17.30;91.20;;;;;;4335572;33;20394;-75
2021/06/30 09:10:29;;;;;;;;;;;17.30;91.20;;;;;;4335265;33;20025;-74
2021/06/30 09:12:56;;;;;;;;;;;17.20;91.20;;;;;;4347710;33;28442;-74
2021/06/30 09:15:32;;;;;;;;;;;17.20;91.60;;;;;;4335038;33;20083;-75
2021/06/30 09:18:19;;;;;;;;;;;17.20;91.20;;;;;;4335449;33;20005;-75
2021/06/30 09:20:46;;;;;;;;;;;17.20;91.30;;;;;;4348192;33;26005;-75
2021/06/30 09:23:13;;;;;;;;;;;17.20;91.30;;;;;;4347965;33;26383;-74
2021/06/30 09:25:42;;;;;;;;;;;17.10;91.30;;;;;;4348892;33;20047;-75
2021/06/30 09:28:14;;;;;;;;;;;17.10;91.30;;;;;;4348166;33;20005;-75
2021/06/30 09:31:00;;;;;;;;;;;17.20;91.40;;;;;;4348265;33;20620;-74
2021/06/30 09:33:47;;;;;;;;;;;17.20;91.40;;;;;;4348305;33;20017;-75
2021/06/30 09:36:15;;;;;;;;;;;17.20;91.30;;;;;;4334720;33;30023;-75
2021/06/30 09:38:44;;;;;;;;;;;17.20;91.40;;;;;;4347454;33;20402;-74
2021/06/30 09:41:18;;;;;;;;;;;17.20;91.40;;;;;;4347509;33;20020;-74
2021/06/30 09:43:46;;;;;;;;;;;17.20;91.40;;;;;;4334452;33;31114;-75
2021/06/30 09:46:20;;;;;;;;;;;17.20;91.40;;;;;;4334613;33;24594;-75
2021/06/30 09:48:55;;;;;;;;;;;17.20;91.40;;;;;;4334134;33;20676;-74
2021/06/30 09:51:22;;;;;;;;;;;17.20;91.40;;;;;;4348001;33;20016;-75
2021/06/30 09:53:50;;;;;;;;;;;17.20;91.40;;;;;;4347144;33;25422;-76
2021/06/30 09:56:40;;;;;;;;;;;17.20;91.50;;;;;;4347746;33;21224;-75
2021/06/30 09:59:09;;;;;;;;;;;17.20;91.50;;;;;;4347208;33;26405;-75
2021/06/30 10:01:37;;;;;;;;;;;17.20;91.50;;;;;;4334494;33;20315;-74
2021/06/30 10:04:05;;;;;;;;;;;17.30;91.50;;;;;;4347476;33;27367;-75
2021/06/30 10:06:36;;;;;;;;;;;17.20;91.40;;;;;;4333675;33;33219;-75
2021/06/30 10:09:13;;;;;;;;;;;17.20;91.40;;;;;;4334888;33;30266;-74
2021/06/30 10:11:40;;;;;;;;;;;17.20;91.40;;;;;;4347300;33;20017;-77
2021/06/30 10:14:07;;;;;;;;;;;17.30;91.40;;;;;;4347469;33;21825;-76
2021/06/30 10:16:36;;;;;;;;;;;17.20;91.40;;;;;;4334332;33;22731;-75
2021/06/30 10:19:03;;;;;;;;;;;17.30;91.40;;;;;;4334444;33;20072;-75
2021/06/30 10:21:31;;;;;;;;;;;17.30;91.40;;;;;;4347375;33;20609;-75
2021/06/30 10:23:58;;;;;;;;;;;17.30;91.40;;;;;;4347461;33;20024;-74
2021/06/30 10:26:26;;;;;;;;;;;17.20;91.30;;;;;;4346818;33;20009;-75
2021/06/30 10:28:54;;;;;;;;;;;17.30;91.40;;;;;;4346645;33;26011;-75
2021/06/30 10:31:22;;;;;;;;;;;17.20;91.40;;;;;;4347321;33;20016;-74
2021/06/30 10:33:59;;;;;;;;;;;17.20;91.40;;;;;;4347386;33;20016;-75
2021/06/30 10:36:46;;;;;;;;;;;17.20;91.40;;;;;;4334042;33;21745;-74
2021/06/30 10:39:17;;;;;;;;;;;17.20;91.40;;;;;;4347313;33;20415;-75
2021/06/30 10:41:51;;;;;;;;;;;17.20;91.40;;;;;;4334040;33;20535;-75
2021/06/30 10:44:24;;;;;;;;;;;17.20;91.50;;;;;;4346879;33;28328;-74
2021/06/30 10:46:53;;;;;;;;;;;17.20;91.50;;;;;;4346567;32;35613;-75
2021/06/30 10:49:20;;;;;;;;;;;17.20;91.50;;;;;;4346513;33;20497;-75
2021/06/30 10:52:00;;;;;;;;;;;17.20;91.50;;;;;;4333673;33;23383;-75
2021/06/30 10:54:33;;;;;;;;;;;17.10;91.40;;;;;;4334442;33;20012;-74
2021/06/30 10:57:29;;;;;;;;;;;17.10;91.50;;;;;;4321589;33;20398;-74
2021/06/30 11:00:03;;;;;;;;;;;17.10;91.50;;;;;;4331363;33;21099;-74
2021/06/30 11:02:32;;;;;;;;;;;17.20;91.50;;;;;;4347217;33;20015;-74
2021/06/30 11:05:21;;;;;;;;;;;17.20;91.40;;;;;;4346474;33;20025;-75
2021/06/30 11:07:48;;;;;;;;;;;17.20;91.40;;;;;;4336551;33;24210;-74
2021/06/30 11:10:21;;;;;;;;;;;17.10;91.40;;;;;;4347159;33;20011;-74
2021/06/30 11:12:49;;;;;;;;;;;17.20;91.40;;;;;;4333235;33;20017;-74
2021/06/30 11:15:35;;;;;;;;;;;17.10;91.40;;;;;;4346750;33;20991;-74
2021/06/30 11:18:03;;;;;;;;;;;17.10;91.40;;;;;;4332892;33;28583;-75
2021/06/30 11:20:46;;;;;;;;;;;17.10;91.40;;;;;;4346604;33;20403;-74
2021/06/30 11:23:23;;;;;;;;;;;17.10;91.40;;;;;;4346243;33;22022;-74
2021/06/30 11:25:54;;;;;;;;;;;17.10;91.40;;;;;;4346577;33;21089;-75
2021/06/30 11:28:27;;;;;;;;;;;17.10;91.40;;;;;;4333784;33;20023;-74
2021/06/30 11:30:54;;;;;;;;;;;17.10;91.50;;;;;;4345813;33;43587;-74
2021/06/30 11:33:24;;;;;;;;;;;17.10;91.40;;;;;;4345711;33;44530;-74
2021/06/30 11:35:51;;;;;;;;;;;17.10;91.40;;;;;;4345323;33;44444;-74
2021/06/30 11:38:23;;;;;;;;;;;17.10;91.40;;;;;;4345933;33;35195;-75
2021/06/30 11:43:29;;;;;;;;;;;17.10;91.50;;;;;;4332992;33;20005;-74
2021/06/30 11:45:58;;;;;;;;;;;17.10;91.50;;;;;;4346386;33;21609;-74
2021/06/30 11:48:28;;;;;;;;;;;17.10;91.50;;;;;;4345581;33;26484;-74
2021/06/30 11:51:05;;;;;;;;;;;17.10;91.90;;;;;;4332920;33;20137;-74
2021/06/30 11:53:34;;;;;;;;;;;17.10;91.40;;;;;;4346301;33;20390;-75
2021/06/30 11:56:02;;;;;;;;;;;17.10;91.40;;;;;;4333665;33;20395;-74
2021/06/30 11:58:59;;;;;;;;;;;17.10;91.40;;;;;;4332869;33;20426;-74
2021/06/30 12:01:40;;;;;;;;;;;17.10;91.40;;;;;;4322761;33;43870;-75
2021/06/30 12:04:08;;;;;;;;;;;17.10;91.40;;;;;;4345685;33;28671;-75
2021/06/30 12:06:35;;;;;;;;;;;17.10;91.50;;;;;;4333073;33;20436;-74
2021/06/30 12:09:05;;;;;;;;;;;17.10;91.50;;;;;;4345849;33;32362;-75
2021/06/30 12:11:33;;;;;;;;;;;17.10;91.50;;;;;;4345204;33;41211;-75
2021/06/30 12:14:05;;;;;;;;;;;17.10;91.60;;;;;;4331508;33;43645;-73
2021/06/30 12:16:44;;;;;;;;;;;17.10;91.50;;;;;;4333276;33;20013;-75
2021/06/30 12:19:13;;;;;;;;;;;17.10;91.50;;;;;;4332171;33;43420;-75
2021/06/30 12:21:41;;;;;;;;;;;17.10;91.50;;;;;;4331785;33;44515;-74
2021/06/30 12:24:18;;;;;;;;;;;17.10;91.40;;;;;;4345922;33;20013;-74
2021/06/30 12:27:05;;;;;;;;;;;17.10;91.40;;;;;;4344696;33;42958;-74
2021/06/30 12:29:33;;;;;;;;;;;17.10;91.50;;;;;;4345923;33;29817;-74
2021/06/30 12:32:02;;;;;;;;;;;17.10;91.80;;;;;;4344938;33;44388;-74
2021/06/30 12:34:29;;;;;;;;;;;17.10;91.50;;;;;;4331478;33;43676;-75
2021/06/30 12:36:58;;;;;;;;;;;17.10;91.50;;;;;;4344691;33;43384;-74
2021/06/30 12:39:30;;;;;;;;;;;17.10;91.50;;;;;;4344647;33;44701;-75
2021/06/30 12:41:57;;;;;;;;;;;17.10;91.50;;;;;;4319607;33;41801;-74
2021/06/30 12:44:25;;;;;;;;;;;17.10;91.50;;;;;;4332977;33;20065;-74
2021/06/30 12:47:11;;;;;;;;;;;17.10;91.50;;;;;;4319850;33;37519;-74
2021/06/30 12:49:42;;;;;;;;;;;17.10;91.50;;;;;;4331974;33;44505;-74
2021/06/30 12:52:20;;;;;;;;;;;17.10;91.50;;;;;;4345098;33;43619;-74
2021/06/30 12:55:05;;;;;;;;;;;17.20;91.50;;;;;;4332258;33;36238;-74
2021/06/30 12:57:32;;;;;;;;;;;17.20;91.50;;;;;;4345422;33;25642;-74
2021/06/30 13:00:10;;;;;;;;;;;17.20;91.50;;;;;;4332348;33;33771;-74
2021/06/30 13:02:37;;;;;;;;;;;17.20;91.40;;;;;;4332531;33;20085;-74
2021/06/30 13:05:24;;;;;;;;;;;17.20;91.50;;;;;;4345048;33;44642;-74
2021/06/30 13:07:53;;;;;;;;;;;17.20;91.50;;;;;;4345798;33;23335;-74
2021/06/30 13:10:21;;;;;;;;;;;17.20;91.50;;;;;;4319983;33;24740;-73
2021/06/30 13:13:03;;;;;;;;;;;17.20;91.50;;;;;;4331119;33;44840;-74
2021/06/30 13:15:30;;;;;;;;;;;17.20;91.50;;;;;;4348721;33;20060;-74
2021/06/30 13:18:13;;;;;;;;;;;17.20;91.50;;;;;;4335529;33;19997;-74
2021/06/30 13:20:41;;;;;;;;;;;17.20;91.50;;;;;;4322338;33;20600;-74
2021/06/30 13:23:08;;;;;;;;;;;17.20;91.50;;;;;;4321972;33;45165;-74
2021/06/30 13:25:56;;;;;;;;;;;17.20;91.50;;;;;;4334142;33;44926;-74
2021/06/30 13:34:29;;;;;;;;;;;17.20;91.50;;;;;;4316076;33;21028;-74
2021/06/30 13:36:58;;;;;;;;;;;17.20;91.50;;;;;;4341612;33;31115;-74
2021/06/30 13:39:25;;;;;;;;;;;17.20;91.50;;;;;;4334449;33;24550;-75
2021/06/30 13:41:55;;;;;;;;;;;17.20;91.50;;;;;;4335148;33;20012;-74
2021/06/30 13:44:27;;;;;;;;;;;17.20;91.50;;;;;;4321690;33;44022;-74
2021/06/30 13:46:54;;;;;;;;;;;17.20;91.60;;;;;;4334106;33;44435;-74
2021/06/30 13:49:22;;;;;;;;;;;17.20;91.50;;;;;;4333693;33;43639;-74
2021/06/30 13:51:53;;;;;;;;;;;17.20;91.60;;;;;;4346665;33;43463;-74
2021/06/30 13:54:21;;;;;;;;;;;17.20;91.50;;;;;;4347225;33;43385;-74
2021/06/30 13:56:48;;;;;;;;;;;17.20;91.60;;;;;;4346686;33;40551;-74
2021/06/30 13:59:15;;;;;;;;;;;17.20;91.50;;;;;;4333815;33;39904;-74
2021/06/30 14:01:45;;;;;;;;;;;17.30;91.60;;;;;;4319173;33;21641;-74
2021/06/30 14:04:13;;;;;;;;;;;17.20;91.60;;;;;;4332005;33;44806;-75
2021/06/30 14:06:42;;;;;;;;;;;17.20;91.60;;;;;;4332443;33;20017;-74
2021/06/30 14:09:14;;;;;;;;;;;17.20;91.60;;;;;;4318894;33;44865;-74
2021/06/30 14:11:41;;;;;;;;;;;17.20;91.60;;;;;;4332435;33;34385;-74
2021/06/30 14:14:09;;;;;;;;;;;17.20;91.60;;;;;;4332502;33;30831;-74
2021/06/30 14:16:38;;;;;;;;;;;17.20;91.60;;;;;;4318775;33;43750;-74
2021/06/30 14:19:08;;;;;;;;;;;17.30;91.70;;;;;;4331218;33;40446;-74
2021/06/30 14:21:35;;;;;;;;;;;17.30;91.70;;;;;;4333312;33;20065;-77
2021/06/30 14:24:02;;;;;;;;;;;17.20;91.70;;;;;;4331835;33;38307;-74
2021/06/30 14:26:30;;;;;;;;;;;17.20;91.70;;;;;;4331216;33;42872;-74
2021/06/30 14:29:03;;;;;;;;;;;17.20;91.70;;;;;;4331886;33;44677;-75
2021/06/30 14:31:32;;;;;;;;;;;17.20;91.70;;;;;;4331920;33;44710;-75
2021/06/30 14:33:59;;;;;;;;;;;17.20;91.70;;;;;;4330168;33;45520;-75
2021/06/30 14:36:29;;;;;;;;;;;17.10;91.80;;;;;;4331934;33;44294;-74
2021/06/30 14:38:56;;;;;;;;;;;17.10;91.80;;;;;;4331863;33;39972;-74
2021/06/30 14:41:26;;;;;;;;;;;17.10;91.90;;;;;;4331101;33;29219;-74
2021/06/30 14:43:53;;;;;;;;;;;17.10;91.90;;;;;;4330921;33;20024;-74
2021/06/30 14:46:20;;;;;;;;;;;17.10;91.90;;;;;;4330552;33;43548;-74
2021/06/30 14:48:47;;;;;;;;;;;17.10;91.90;;;;;;4331859;33;37196;-74